Kejimkujik National Park, Canada
Current Conditions -  °F | °C
As of 4:00 AM on Sunday 23 Nov 2014 (Local Time) from CYZX Reporting Station
Overcast Overcast  
Wind Chill: 31°   Ceiling: 18000
Heat Index: 39°   Visibility: 15mi
Dew Point: 36°   Wind: 14mph
Humidity: 87%   Direction: 260°W
Pressure: 29.89"   Gusts: 21mph
Location:  44.37°N, 65.26°W
Report Text: CYZX 230800Z 26012G18KT 15SM FEW028 SCT041 OVC180 04/02 A2989 RMK SC2SC2AC4 WNDY HILL 28013G21KT SLP122
Loading
Personal Weather Stations






























Interactive Weather Map New forecast layout! Learn more

10-Day Weather Forecast

Advertisements
Track Severe Weather on mobile